sensor_id;sensor_type;location;lat;lon;timestamp;pressure;altitude;pressure_sealevel;temperature;humidity
17209;BME280;8720;48.488;9.202;2022-07-29T00:01:20;96888.22;;;23.21;65.14
17209;BME280;8720;48.488;9.202;2022-07-29T00:03:47;96875.09;;;23.18;64.71
17209;BME280;8720;48.488;9.202;2022-07-29T00:06:16;96879.69;;;23.16;64.93
17209;BME280;8720;48.488;9.202;2022-07-29T00:08:44;96878.13;;;23.14;65.09
17209;BME280;8720;48.488;9.202;2022-07-29T00:11:11;96879.06;;;23.13;64.57
17209;BME280;8720;48.488;9.202;2022-07-29T00:13:38;96866.81;;;23.10;64.90
17209;BME280;8720;48.488;9.202;2022-07-29T00:16:05;96867.06;;;23.07;64.66
17209;BME280;8720;48.488;9.202;2022-07-29T00:18:33;96861.84;;;23.06;64.62
17209;BME280;8720;48.488;9.202;2022-07-29T00:21:00;96865.59;;;23.03;64.63
17209;BME280;8720;48.488;9.202;2022-07-29T00:23:29;96862.19;;;23.01;64.87
17209;BME280;8720;48.488;9.202;2022-07-29T00:25:56;96854.28;;;23.00;64.76
17209;BME280;8720;48.488;9.202;2022-07-29T00:28:23;96856.34;;;22.96;65.04
17209;BME280;8720;48.488;9.202;2022-07-29T00:30:50;96852.56;;;22.99;64.86
17209;BME280;8720;48.488;9.202;2022-07-29T00:33:18;96851.03;;;22.96;64.81
17209;BME280;8720;48.488;9.202;2022-07-29T00:35:45;96851.97;;;22.95;64.73
17209;BME280;8720;48.488;9.202;2022-07-29T00:38:13;96850.41;;;22.93;64.83
17209;BME280;8720;48.488;9.202;2022-07-29T00:40:42;96856.56;;;22.93;64.65
17209;BME280;8720;48.488;9.202;2022-07-29T00:43:10;96855.84;;;22.91;64.88
17209;BME280;8720;48.488;9.202;2022-07-29T00:45:37;96854.16;;;22.90;64.71
17209;BME280;8720;48.488;9.202;2022-07-29T00:48:05;96855.94;;;22.90;64.92
17209;BME280;8720;48.488;9.202;2022-07-29T00:50:35;96840.53;;;22.82;64.72
17209;BME280;8720;48.488;9.202;2022-07-29T00:53:05;96847.47;;;22.85;64.89
17209;BME280;8720;48.488;9.202;2022-07-29T00:55:34;96840.41;;;22.84;64.99
17209;BME280;8720;48.488;9.202;2022-07-29T00:58:03;96843.19;;;22.82;65.04
17209;BME280;8720;48.488;9.202;2022-07-29T01:00:31;96829.97;;;22.81;64.73
17209;BME280;8720;48.488;9.202;2022-07-29T01:02:58;96831.78;;;22.80;64.79
17209;BME280;8720;48.488;9.202;2022-07-29T01:05:27;96822.84;;;22.81;64.94
17209;BME280;8720;48.488;9.202;2022-07-29T01:07:57;96818.44;;;22.80;64.57
17209;BME280;8720;48.488;9.202;2022-07-29T01:10:26;96822.19;;;22.78;64.75
17209;BME280;8720;48.488;9.202;2022-07-29T01:12:57;96824.03;;;22.77;64.44
17209;BME280;8720;48.488;9.202;2022-07-29T01:15:27;96811.75;;;22.75;64.94
17209;BME280;8720;48.488;9.202;2022-07-29T01:18:05;96816.25;;;22.74;64.72
17209;BME280;8720;48.488;9.202;2022-07-29T01:20:55;96821.09;;;22.69;64.58
17209;BME280;8720;48.488;9.202;2022-07-29T01:23:52;96824.09;;;22.65;64.74
17209;BME280;8720;48.488;9.202;2022-07-29T01:26:42;96824.31;;;22.62;65.02
17209;BME280;8720;48.488;9.202;2022-07-29T01:29:18;96811.41;;;22.55;65.27
17209;BME280;8720;48.488;9.202;2022-07-29T01:32:06;96821.66;;;22.62;65.12
17209;BME280;8720;48.488;9.202;2022-07-29T01:34:48;96828.69;;;22.63;65.36
17209;BME280;8720;48.488;9.202;2022-07-29T01:37:23;96833.81;;;22.66;64.87
17209;BME280;8720;48.488;9.202;2022-07-29T01:39:56;96828.34;;;22.67;65.06
17209;BME280;8720;48.488;9.202;2022-07-29T01:42:30;96821.09;;;22.69;65.21
17209;BME280;8720;48.488;9.202;2022-07-29T01:45:08;96818.28;;;22.71;64.71
17209;BME280;8720;48.488;9.202;2022-07-29T01:47:43;96822.66;;;22.72;65.08
17209;BME280;8720;48.488;9.202;2022-07-29T01:50:17;96819.16;;;22.71;65.09
17209;BME280;8720;48.488;9.202;2022-07-29T01:52:52;96822.78;;;22.70;64.73
17209;BME280;8720;48.488;9.202;2022-07-29T01:55:26;96826.53;;;22.68;64.93
17209;BME280;8720;48.488;9.202;2022-07-29T01:57:57;96815.88;;;22.68;65.18
17209;BME280;8720;48.488;9.202;2022-07-29T02:05:46;96813.41;;;22.65;64.63
17209;BME280;8720;48.488;9.202;2022-07-29T02:08:16;96817.06;;;22.64;64.76
17209;BME280;8720;48.488;9.202;2022-07-29T02:10:47;96817.28;;;22.61;64.59
17209;BME280;8720;48.488;9.202;2022-07-29T02:13:17;96819.22;;;22.58;64.85
17209;BME280;8720;48.488;9.202;2022-07-29T02:15:46;96804.38;;;22.54;64.52
17209;BME280;8720;48.488;9.202;2022-07-29T02:18:18;96813.47;;;22.52;65.01
17209;BME280;8720;48.488;9.202;2022-07-29T02:20:52;96810.06;;;22.50;64.55
17209;BME280;8720;48.488;9.202;2022-07-29T02:23:23;96817.31;;;22.48;64.76
17209;BME280;8720;48.488;9.202;2022-07-29T02:25:54;96812.94;;;22.47;64.65
17209;BME280;8720;48.488;9.202;2022-07-29T02:28:25;96799.56;;;22.36;65.00
17209;BME280;8720;48.488;9.202;2022-07-29T02:30:57;96813.06;;;22.45;65.06
17209;BME280;8720;48.488;9.202;2022-07-29T02:33:26;96817.31;;;22.48;64.52
17209;BME280;8720;48.488;9.202;2022-07-29T02:35:58;96810.28;;;22.47;64.56
17209;BME280;8720;48.488;9.202;2022-07-29T02:38:28;96811.13;;;22.47;64.42
17209;BME280;8720;48.488;9.202;2022-07-29T02:41:18;96802.72;;;22.41;65.03
17209;BME280;8720;48.488;9.202;2022-07-29T02:43:50;96805.91;;;22.46;64.82
17209;BME280;8720;48.488;9.202;2022-07-29T02:46:27;96807.00;;;22.43;64.48
17209;BME280;8720;48.488;9.202;2022-07-29T02:49:02;96803.47;;;22.43;64.67
17209;BME280;8720;48.488;9.202;2022-07-29T02:51:41;96807.22;;;22.40;64.98
17209;BME280;8720;48.488;9.202;2022-07-29T02:54:18;96815.09;;;22.42;64.70
17209;BME280;8720;48.488;9.202;2022-07-29T02:56:47;96817.03;;;22.40;64.57
17209;BME280;8720;48.488;9.202;2022-07-29T02:59:23;96788.84;;;22.25;64.33
17209;BME280;8720;48.488;9.202;2022-07-29T03:01:54;96810.97;;;22.38;64.72
17209;BME280;8720;48.488;9.202;2022-07-29T03:04:25;96811.91;;;22.37;64.87
17209;BME280;8720;48.488;9.202;2022-07-29T03:06:59;96815.56;;;22.36;64.62
17209;BME280;8720;48.488;9.202;2022-07-29T03:09:28;96786.75;;;22.17;64.88
17209;BME280;8720;48.488;9.202;2022-07-29T03:11:57;96812.16;;;22.34;64.92
17209;BME280;8720;48.488;9.202;2022-07-29T03:14:26;96812.47;;;22.29;64.46
17209;BME280;8720;48.488;9.202;2022-07-29T03:16:54;96802.19;;;22.25;64.35
17209;BME280;8720;48.488;9.202;2022-07-29T03:19:22;96813.13;;;22.33;64.59
17209;BME280;8720;48.488;9.202;2022-07-29T03:21:49;96819.41;;;22.32;64.44
17209;BME280;8720;48.488;9.202;2022-07-29T03:24:30;96818.56;;;22.31;64.47
17209;BME280;8720;48.488;9.202;2022-07-29T03:26:57;96815.06;;;22.31;64.57
17209;BME280;8720;48.488;9.202;2022-07-29T03:29:25;96817.72;;;22.31;64.63
17209;BME280;8720;48.488;9.202;2022-07-29T03:31:53;96800.69;;;22.21;64.39
17209;BME280;8720;48.488;9.202;2022-07-29T03:34:21;96781.13;;;22.09;64.50
17209;BME280;8720;48.488;9.202;2022-07-29T03:36:49;96807.38;;;22.26;64.57
17209;BME280;8720;48.488;9.202;2022-07-29T03:39:21;96811.97;;;22.24;64.49
17209;BME280;8720;48.488;9.202;2022-07-29T03:41:55;96821.03;;;22.22;64.44
17209;BME280;8720;48.488;9.202;2022-07-29T03:44:27;96820.31;;;22.20;64.67
17209;BME280;8720;48.488;9.202;2022-07-29T03:46:59;96783.81;;;21.97;64.55
17209;BME280;8720;48.488;9.202;2022-07-29T03:49:29;96813.22;;;22.08;64.52
17209;BME280;8720;48.488;9.202;2022-07-29T03:51:58;96827.91;;;22.13;64.76
17209;BME280;8720;48.488;9.202;2022-07-29T03:54:25;96821.72;;;22.13;64.45
17209;BME280;8720;48.488;9.202;2022-07-29T03:56:57;96816.63;;;22.10;64.68
17209;BME280;8720;48.488;9.202;2022-07-29T03:59:27;96816.41;;;22.13;64.79
17209;BME280;8720;48.488;9.202;2022-07-29T04:01:56;96813.09;;;22.09;64.56
17209;BME280;8720;48.488;9.202;2022-07-29T04:04:24;96822.78;;;22.10;64.67
17209;BME280;8720;48.488;9.202;2022-07-29T04:06:51;96822.03;;;22.08;64.68
17209;BME280;8720;48.488;9.202;2022-07-29T04:09:19;96818.56;;;22.08;64.81
17209;BME280;8720;48.488;9.202;2022-07-29T04:11:46;96822.91;;;22.09;64.65
17209;BME280;8720;48.488;9.202;2022-07-29T04:14:15;96819.38;;;22.08;64.56
17209;BME280;8720;48.488;9.202;2022-07-29T04:16:42;96825.56;;;22.09;64.62
17209;BME280;8720;48.488;9.202;2022-07-29T04:19:09;96824.84;;;22.07;64.61
17209;BME280;8720;48.488;9.202;2022-07-29T04:21:37;96806.63;;;22.01;64.62
17209;BME280;8720;48.488;9.202;2022-07-29T04:24:06;96810.25;;;22.00;64.54
17209;BME280;8720;48.488;9.202;2022-07-29T04:26:34;96823.41;;;22.14;65.04
17209;BME280;8720;48.488;9.202;2022-07-29T04:29:01;96835.78;;;22.15;65.12
17209;BME280;8720;48.488;9.202;2022-07-29T04:31:30;96821.72;;;22.13;65.22
17209;BME280;8720;48.488;9.202;2022-07-29T04:33:58;96830.88;;;22.21;65.35
17209;BME280;8720;48.488;9.202;2022-07-29T04:36:25;96829.16;;;22.20;65.16
17209;BME280;8720;48.488;9.202;2022-07-29T04:38:52;96830.41;;;22.27;64.94
17209;BME280;8720;48.488;9.202;2022-07-29T04:41:19;96836.75;;;22.37;65.71
17209;BME280;8720;48.488;9.202;2022-07-29T04:43:47;96829.97;;;22.81;64.89
17209;BME280;8720;48.488;9.202;2022-07-29T04:46:14;96833.28;;;22.95;65.50
17209;BME280;8720;48.488;9.202;2022-07-29T04:48:45;96830.44;;;23.09;65.72
17209;BME280;8720;48.488;9.202;2022-07-29T04:51:12;96833.16;;;23.31;65.59
17209;BME280;8720;48.488;9.202;2022-07-29T04:53:39;96828.13;;;23.51;65.17
17209;BME280;8720;48.488;9.202;2022-07-29T04:56:07;96830.53;;;23.65;64.76
17209;BME280;8720;48.488;9.202;2022-07-29T04:58:35;96830.44;;;23.77;64.58
17209;BME280;8720;48.488;9.202;2022-07-29T05:01:02;96841.97;;;23.89;64.51
17209;BME280;8720;48.488;9.202;2022-07-29T05:03:29;96834.88;;;23.99;63.76
17209;BME280;8720;48.488;9.202;2022-07-29T05:05:58;96835.16;;;24.07;63.34
17209;BME280;8720;48.488;9.202;2022-07-29T05:08:25;96842.56;;;24.14;63.38
17209;BME280;8720;48.488;9.202;2022-07-29T05:10:53;96838.66;;;24.18;62.97
17209;BME280;8720;48.488;9.202;2022-07-29T05:13:20;96836.72;;;24.20;62.50
17209;BME280;8720;48.488;9.202;2022-07-29T05:15:47;96842.91;;;24.21;63.02
17209;BME280;8720;48.488;9.202;2022-07-29T05:18:15;96849.09;;;24.32;63.00
17209;BME280;8720;48.488;9.202;2022-07-29T05:20:42;96844.78;;;24.52;63.52
17209;BME280;8720;48.488;9.202;2022-07-29T05:23:11;96841.00;;;24.66;63.08
17209;BME280;8720;48.488;9.202;2022-07-29T05:25:40;96843.56;;;24.99;63.55
17209;BME280;8720;48.488;9.202;2022-07-29T05:28:07;96847.47;;;25.36;63.50
17209;BME280;8720;48.488;9.202;2022-07-29T05:30:35;96851.00;;;25.78;63.15
17209;BME280;8720;48.488;9.202;2022-07-29T05:33:02;96862.63;;;26.18;62.94
17209;BME280;8720;48.488;9.202;2022-07-29T05:35:29;96863.44;;;26.58;62.24
17209;BME280;8720;48.488;9.202;2022-07-29T05:37:56;96863.66;;;27.05;61.59
17209;BME280;8720;48.488;9.202;2022-07-29T05:40:25;96861.38;;;27.38;61.09
17209;BME280;8720;48.488;9.202;2022-07-29T05:42:52;96866.06;;;27.55;59.65
17209;BME280;8720;48.488;9.202;2022-07-29T05:45:20;96854.56;;;27.63;58.97
17209;BME280;8720;48.488;9.202;2022-07-29T05:47:47;96859.81;;;27.64;58.09
17209;BME280;8720;48.488;9.202;2022-07-29T05:50:14;96862.34;;;27.66;58.05
17209;BME280;8720;48.488;9.202;2022-07-29T05:52:41;96867.00;;;27.64;57.60
17209;BME280;8720;48.488;9.202;2022-07-29T05:55:09;96855.00;;;27.58;57.10
17209;BME280;8720;48.488;9.202;2022-07-29T05:57:38;96865.34;;;27.63;57.25
17209;BME280;8720;48.488;9.202;2022-07-29T06:00:08;96858.78;;;27.65;57.30
17209;BME280;8720;48.488;9.202;2022-07-29T06:02:38;96868.84;;;27.73;56.71
17209;BME280;8720;48.488;9.202;2022-07-29T06:05:06;96877.03;;;27.71;56.65
17209;BME280;8720;48.488;9.202;2022-07-29T06:07:34;96869.31;;;27.59;56.54
17209;BME280;8720;48.488;9.202;2022-07-29T06:10:02;96878.50;;;27.56;56.36
17209;BME280;8720;48.488;9.202;2022-07-29T06:12:29;96887.56;;;27.55;56.84
17209;BME280;8720;48.488;9.202;2022-07-29T06:14:58;96881.88;;;27.58;56.90
17209;BME280;8720;48.488;9.202;2022-07-29T06:17:25;96876.66;;;27.57;57.07
17209;BME280;8720;48.488;9.202;2022-07-29T06:19:52;96883.59;;;27.59;57.22
17209;BME280;8720;48.488;9.202;2022-07-29T06:22:19;96884.72;;;27.57;56.67
17209;BME280;8720;48.488;9.202;2022-07-29T06:24:47;96882.47;;;27.52;57.24
17209;BME280;8720;48.488;9.202;2022-07-29T06:27:14;96878.25;;;27.50;57.09
17209;BME280;8720;48.488;9.202;2022-07-29T06:29:42;96885.28;;;27.51;57.32
17209;BME280;8720;48.488;9.202;2022-07-29T06:32:10;96877.94;;;27.53;57.52
17209;BME280;8720;48.488;9.202;2022-07-29T06:34:38;96878.91;;;27.52;57.33
17209;BME280;8720;48.488;9.202;2022-07-29T06:37:11;96877.66;;;27.46;57.11
17209;BME280;8720;48.488;9.202;2022-07-29T06:39:38;96879.06;;;27.50;57.67
17209;BME280;8720;48.488;9.202;2022-07-29T06:42:06;96871.16;;;27.49;57.68
17209;BME280;8720;48.488;9.202;2022-07-29T06:44:35;96887.94;;;27.70;57.99
17209;BME280;8720;48.488;9.202;2022-07-29T06:47:02;96890.44;;;28.00;58.48
17209;BME280;8720;48.488;9.202;2022-07-29T06:49:31;96886.06;;;28.36;58.50
17209;BME280;8720;48.488;9.202;2022-07-29T06:51:58;96882.91;;;28.67;58.21
17209;BME280;8720;48.488;9.202;2022-07-29T06:54:26;96886.88;;;29.08;57.82
17209;BME280;8720;48.488;9.202;2022-07-29T06:56:53;96890.00;;;29.48;58.00
17209;BME280;8720;48.488;9.202;2022-07-29T06:59:20;96893.72;;;29.91;57.29
17209;BME280;8720;48.488;9.202;2022-07-29T07:01:48;96895.06;;;30.20;56.81
17209;BME280;8720;48.488;9.202;2022-07-29T07:04:15;96897.09;;;30.52;56.28
17209;BME280;8720;48.488;9.202;2022-07-29T07:06:44;96887.91;;;30.79;55.91
17209;BME280;8720;48.488;9.202;2022-07-29T07:09:11;96899.16;;;31.08;55.20
17209;BME280;8720;48.488;9.202;2022-07-29T07:11:39;96890.75;;;31.27;54.30
17209;BME280;8720;48.488;9.202;2022-07-29T07:14:06;96896.72;;;31.55;54.71
17209;BME280;8720;48.488;9.202;2022-07-29T07:16:37;96890.94;;;31.90;54.49
17209;BME280;8720;48.488;9.202;2022-07-29T07:19:04;96896.53;;;32.04;53.84
17209;BME280;8720;48.488;9.202;2022-07-29T07:21:33;96900.72;;;32.15;52.62
17209;BME280;8720;48.488;9.202;2022-07-29T07:24:01;96896.53;;;32.12;51.75
17209;BME280;8720;48.488;9.202;2022-07-29T07:26:29;96900.41;;;32.10;51.54
17209;BME280;8720;48.488;9.202;2022-07-29T07:28:57;96894.69;;;32.05;51.27
17209;BME280;8720;48.488;9.202;2022-07-29T07:31:26;96900.59;;;32.08;51.43
17209;BME280;8720;48.488;9.202;2022-07-29T07:33:53;96902.44;;;32.16;51.44
17209;BME280;8720;48.488;9.202;2022-07-29T07:36:21;96896.81;;;32.26;51.61
17209;BME280;8720;48.488;9.202;2022-07-29T07:38:48;96890.66;;;32.48;51.51
17209;BME280;8720;48.488;9.202;2022-07-29T07:41:17;96896.00;;;32.72;51.59
17209;BME280;8720;48.488;9.202;2022-07-29T07:43:45;96903.69;;;32.99;51.63
17209;BME280;8720;48.488;9.202;2022-07-29T07:46:12;96901.84;;;33.22;51.65
17209;BME280;8720;48.488;9.202;2022-07-29T07:48:40;96899.84;;;33.39;50.57
17209;BME280;8720;48.488;9.202;2022-07-29T07:51:07;96894.69;;;33.52;50.49
17209;BME280;8720;48.488;9.202;2022-07-29T07:53:35;96896.44;;;33.67;50.24
17209;BME280;8720;48.488;9.202;2022-07-29T07:56:02;96899.22;;;33.82;50.30
17209;BME280;8720;48.488;9.202;2022-07-29T07:58:31;96894.69;;;33.97;49.70
17209;BME280;8720;48.488;9.202;2022-07-29T08:00:58;96896.31;;;34.21;49.34
17209;BME280;8720;48.488;9.202;2022-07-29T08:03:26;96901.84;;;34.42;48.94
17209;BME280;8720;48.488;9.202;2022-07-29T08:05:53;96903.56;;;34.57;48.04
17209;BME280;8720;48.488;9.202;2022-07-29T08:08:20;96903.28;;;34.67;48.03
17209;BME280;8720;48.488;9.202;2022-07-29T08:10:47;96902.59;;;34.79;47.08
17209;BME280;8720;48.488;9.202;2022-07-29T08:13:23;96899.31;;;34.99;46.94
17209;BME280;8720;48.488;9.202;2022-07-29T08:15:55;96897.88;;;35.17;46.41
17209;BME280;8720;48.488;9.202;2022-07-29T08:18:29;96902.94;;;35.41;45.39
17209;BME280;8720;48.488;9.202;2022-07-29T08:20:56;96898.41;;;35.70;45.08
17209;BME280;8720;48.488;9.202;2022-07-29T08:23:24;96890.38;;;36.04;44.23
17209;BME280;8720;48.488;9.202;2022-07-29T08:25:52;96883.00;;;36.25;42.90
17209;BME280;8720;48.488;9.202;2022-07-29T08:28:20;96898.84;;;36.43;42.09
17209;BME280;8720;48.488;9.202;2022-07-29T08:30:47;96902.94;;;36.60;41.89
17209;BME280;8720;48.488;9.202;2022-07-29T08:33:15;96902.63;;;36.83;41.61
17209;BME280;8720;48.488;9.202;2022-07-29T08:35:43;96902.34;;;37.05;41.24
17209;BME280;8720;48.488;9.202;2022-07-29T08:38:11;96898.41;;;37.21;40.81
17209;BME280;8720;48.488;9.202;2022-07-29T08:40:39;96892.38;;;37.32;40.46
17209;BME280;8720;48.488;9.202;2022-07-29T08:43:08;96906.25;;;37.44;40.87
17209;BME280;8720;48.488;9.202;2022-07-29T08:45:43;96899.56;;;37.53;40.72
17209;BME280;8720;48.488;9.202;2022-07-29T08:48:12;96907.56;;;37.54;40.32
17209;BME280;8720;48.488;9.202;2022-07-29T08:50:42;96896.59;;;37.48;40.23
17209;BME280;8720;48.488;9.202;2022-07-29T08:53:12;96903.31;;;37.45;40.05
17209;BME280;8720;48.488;9.202;2022-07-29T08:55:42;96907.31;;;37.43;39.82
17209;BME280;8720;48.488;9.202;2022-07-29T08:58:11;96913.63;;;37.43;39.95
17209;BME280;8720;48.488;9.202;2022-07-29T09:00:43;96915.69;;;37.34;40.00
17209;BME280;8720;48.488;9.202;2022-07-29T09:03:15;96923.63;;;37.29;39.31
17209;BME280;8720;48.488;9.202;2022-07-29T09:05:45;96917.91;;;37.11;39.53
17209;BME280;8720;48.488;9.202;2022-07-29T09:08:14;96917.78;;;36.85;39.40
17209;BME280;8720;48.488;9.202;2022-07-29T09:10:42;96917.16;;;36.56;39.50
17209;BME280;8720;48.488;9.202;2022-07-29T09:13:10;96914.06;;;36.31;39.75
17209;BME280;8720;48.488;9.202;2022-07-29T09:15:37;96913.84;;;36.05;39.19
17209;BME280;8720;48.488;9.202;2022-07-29T09:18:07;96909.44;;;35.83;40.12
17209;BME280;8720;48.488;9.202;2022-07-29T09:20:34;96912.44;;;35.67;40.42
17209;BME280;8720;48.488;9.202;2022-07-29T09:23:16;96915.41;;;35.50;41.25
17209;BME280;8720;48.488;9.202;2022-07-29T09:25:44;96911.28;;;35.40;40.53
17209;BME280;8720;48.488;9.202;2022-07-29T09:28:13;96906.72;;;35.26;40.30
17209;BME280;8720;48.488;9.202;2022-07-29T09:30:51;96911.13;;;35.06;41.01
17209;BME280;8720;48.488;9.202;2022-07-29T09:33:21;96911.22;;;34.98;40.64
17209;BME280;8720;48.488;9.202;2022-07-29T09:35:59;96904.34;;;34.87;40.70
17209;BME280;8720;48.488;9.202;2022-07-29T09:38:30;96915.72;;;34.76;40.86
17209;BME280;8720;48.488;9.202;2022-07-29T09:40:59;96919.38;;;34.68;41.46
17209;BME280;8720;48.488;9.202;2022-07-29T09:43:27;96917.53;;;34.69;42.06
17209;BME280;8720;48.488;9.202;2022-07-29T09:45:55;96897.84;;;34.67;41.37
17209;BME280;8720;48.488;9.202;2022-07-29T09:48:24;96912.09;;;34.69;41.53
17209;BME280;8720;48.488;9.202;2022-07-29T09:50:52;96909.91;;;34.64;41.21
17209;BME280;8720;48.488;9.202;2022-07-29T09:53:33;96908.06;;;34.65;41.94
17209;BME280;8720;48.488;9.202;2022-07-29T09:56:01;96912.25;;;34.67;41.85
17209;BME280;8720;48.488;9.202;2022-07-29T09:58:28;96905.41;;;34.71;41.83
17209;BME280;8720;48.488;9.202;2022-07-29T10:00:56;96903.19;;;34.75;41.31
17209;BME280;8720;48.488;9.202;2022-07-29T10:03:24;96890.13;;;34.70;40.61
17209;BME280;8720;48.488;9.202;2022-07-29T10:06:06;96894.16;;;34.60;41.75
17209;BME280;8720;48.488;9.202;2022-07-29T10:08:36;96888.28;;;34.56;41.20
17209;BME280;8720;48.488;9.202;2022-07-29T10:11:12;96885.28;;;34.51;41.58
17209;BME280;8720;48.488;9.202;2022-07-29T10:13:41;96878.69;;;34.46;40.40
17209;BME280;8720;48.488;9.202;2022-07-29T10:16:09;96877.09;;;34.37;41.43
17209;BME280;8720;48.488;9.202;2022-07-29T10:18:39;96878.50;;;34.33;41.00
17209;BME280;8720;48.488;9.202;2022-07-29T10:21:07;96879.34;;;34.33;41.36
17209;BME280;8720;48.488;9.202;2022-07-29T10:23:36;96869.97;;;34.36;40.99
17209;BME280;8720;48.488;9.202;2022-07-29T10:26:04;96863.88;;;34.34;40.98
17209;BME280;8720;48.488;9.202;2022-07-29T10:28:32;96867.47;;;34.34;41.39
17209;BME280;8720;48.488;9.202;2022-07-29T10:31:08;96858.16;;;34.29;41.53
17209;BME280;8720;48.488;9.202;2022-07-29T10:33:52;96873.72;;;34.35;41.77
17209;BME280;8720;48.488;9.202;2022-07-29T10:36:43;96879.16;;;34.35;41.75
17209;BME280;8720;48.488;9.202;2022-07-29T10:39:33;96881.22;;;34.33;41.64
17209;BME280;8720;48.488;9.202;2022-07-29T10:42:15;96878.31;;;34.34;41.42
17209;BME280;8720;48.488;9.202;2022-07-29T10:44:45;96871.94;;;34.42;41.31
17209;BME280;8720;48.488;9.202;2022-07-29T10:47:24;96868.31;;;34.49;41.47
17209;BME280;8720;48.488;9.202;2022-07-29T10:49:59;96860.72;;;34.59;41.11
17209;BME280;8720;48.488;9.202;2022-07-29T10:52:54;96856.59;;;34.63;42.36
17209;BME280;8720;48.488;9.202;2022-07-29T10:55:35;96843.28;;;34.68;40.82
17209;BME280;8720;48.488;9.202;2022-07-29T10:58:14;96852.06;;;34.70;40.38
17209;BME280;8720;48.488;9.202;2022-07-29T11:00:41;96847.50;;;34.71;40.13
17209;BME280;8720;48.488;9.202;2022-07-29T11:03:09;96848.50;;;34.70;40.52
17209;BME280;8720;48.488;9.202;2022-07-29T11:05:55;96852.94;;;34.71;40.96
17209;BME280;8720;48.488;9.202;2022-07-29T11:08:24;96856.97;;;34.75;40.36
17209;BME280;8720;48.488;9.202;2022-07-29T11:11:35;96855.50;;;34.79;43.15
17209;BME280;8720;48.488;9.202;2022-07-29T11:14:06;96859.81;;;34.88;40.82
17209;BME280;8720;48.488;9.202;2022-07-29T11:17:03;96850.25;;;34.92;42.39
17209;BME280;8720;48.488;9.202;2022-07-29T11:19:33;96848.66;;;34.98;40.32
17209;BME280;8720;48.488;9.202;2022-07-29T11:22:02;96849.97;;;35.02;40.09
17209;BME280;8720;48.488;9.202;2022-07-29T11:24:30;96839.25;;;35.00;39.95
17209;BME280;8720;48.488;9.202;2022-07-29T11:27:15;96838.78;;;35.11;40.76
17209;BME280;8720;48.488;9.202;2022-07-29T11:29:54;96844.28;;;35.18;40.39
17209;BME280;8720;48.488;9.202;2022-07-29T11:32:25;96835.75;;;35.21;39.79
17209;BME280;8720;48.488;9.202;2022-07-29T11:35:12;96853.09;;;35.20;40.47
17209;BME280;8720;48.488;9.202;2022-07-29T11:37:40;96845.13;;;35.18;38.91
17209;BME280;8720;48.488;9.202;2022-07-29T11:40:17;96864.72;;;35.14;39.68
17209;BME280;8720;48.488;9.202;2022-07-29T11:42:50;96874.44;;;35.02;39.58
17209;BME280;8720;48.488;9.202;2022-07-29T11:45:24;96871.25;;;34.84;39.36
17209;BME280;8720;48.488;9.202;2022-07-29T11:47:57;96872.25;;;34.61;39.53
17209;BME280;8720;48.488;9.202;2022-07-29T11:50:36;96869.03;;;34.29;39.69
17209;BME280;8720;48.488;9.202;2022-07-29T11:53:11;96850.19;;;33.98;40.16
17209;BME280;8720;48.488;9.202;2022-07-29T11:55:40;96862.69;;;33.84;40.23
17209;BME280;8720;48.488;9.202;2022-07-29T11:58:09;96865.09;;;33.65;40.12
17209;BME280;8720;48.488;9.202;2022-07-29T12:00:39;96861.53;;;33.42;40.43
17209;BME280;8720;48.488;9.202;2022-07-29T12:03:09;96870.22;;;33.15;40.68
17209;BME280;8720;48.488;9.202;2022-07-29T12:05:40;96867.31;;;32.85;40.96
17209;BME280;8720;48.488;9.202;2022-07-29T12:08:11;96874.72;;;32.61;41.81
17209;BME280;8720;48.488;9.202;2022-07-29T12:10:41;96879.34;;;32.36;41.99
17209;BME280;8720;48.488;9.202;2022-07-29T12:13:10;96884.50;;;32.07;42.52
17209;BME280;8720;48.488;9.202;2022-07-29T12:15:38;96891.28;;;31.79;43.14
17209;BME280;8720;48.488;9.202;2022-07-29T12:18:15;96890.63;;;31.45;43.39
17209;BME280;8720;48.488;9.202;2022-07-29T12:20:44;96881.75;;;31.02;43.97
17209;BME280;8720;48.488;9.202;2022-07-29T12:23:12;96884.16;;;30.64;44.73
17209;BME280;8720;48.488;9.202;2022-07-29T12:25:43;96898.69;;;30.29;45.02
17209;BME280;8720;48.488;9.202;2022-07-29T12:28:14;96911.75;;;29.90;46.81
17209;BME280;8720;48.488;9.202;2022-07-29T12:30:46;96916.97;;;29.31;47.33
17209;BME280;8720;48.488;9.202;2022-07-29T12:33:19;96916.63;;;28.71;48.09
17209;BME280;8720;48.488;9.202;2022-07-29T12:35:50;96936.09;;;28.29;48.93
17209;BME280;8720;48.488;9.202;2022-07-29T12:38:19;96941.69;;;27.99;49.72
17209;BME280;8720;48.488;9.202;2022-07-29T12:40:48;96929.41;;;27.67;51.12
17209;BME280;8720;48.488;9.202;2022-07-29T12:43:20;96937.06;;;27.24;53.00
17209;BME280;8720;48.488;9.202;2022-07-29T12:45:49;96935.69;;;26.71;53.89
17209;BME280;8720;48.488;9.202;2022-07-29T12:48:17;96939.88;;;26.24;55.41
17209;BME280;8720;48.488;9.202;2022-07-29T12:51:01;96934.03;;;25.89;56.96
17209;BME280;8720;48.488;9.202;2022-07-29T12:53:29;96934.88;;;25.69;58.51
17209;BME280;8720;48.488;9.202;2022-07-29T12:55:58;96934.56;;;25.62;59.92
17209;BME280;8720;48.488;9.202;2022-07-29T12:58:34;96930.81;;;25.54;60.29
17209;BME280;8720;48.488;9.202;2022-07-29T13:01:09;96929.78;;;25.66;60.98
17209;BME280;8720;48.488;9.202;2022-07-29T13:03:52;96933.38;;;25.76;61.30
17209;BME280;8720;48.488;9.202;2022-07-29T13:06:37;96936.84;;;25.87;61.05
17209;BME280;8720;48.488;9.202;2022-07-29T13:09:11;96942.13;;;25.98;59.67
17209;BME280;8720;48.488;9.202;2022-07-29T13:11:41;96929.91;;;26.05;60.38
17209;BME280;8720;48.488;9.202;2022-07-29T13:14:14;96923.84;;;26.13;59.69
17209;BME280;8720;48.488;9.202;2022-07-29T13:17:02;96916.13;;;26.20;60.98
17209;BME280;8720;48.488;9.202;2022-07-29T13:19:38;96914.59;;;26.27;60.53
17209;BME280;8720;48.488;9.202;2022-07-29T13:22:06;96912.94;;;26.35;60.80
17209;BME280;8720;48.488;9.202;2022-07-29T13:24:45;96906.50;;;26.47;59.93
17209;BME280;8720;48.488;9.202;2022-07-29T13:27:14;96902.13;;;26.56;60.26
17209;BME280;8720;48.488;9.202;2022-07-29T13:29:43;96904.56;;;26.68;60.68
17209;BME280;8720;48.488;9.202;2022-07-29T13:32:11;96904.91;;;26.84;60.07
17209;BME280;8720;48.488;9.202;2022-07-29T13:34:39;96915.53;;;26.95;59.68